createdAt,value
2022-11-05T00:00:19.201Z,8.27
2022-11-05T00:01:19.248Z,8.25
2022-11-05T00:02:19.209Z,8.24
2022-11-05T00:03:19.284Z,8.24
2022-11-05T00:04:19.191Z,8.22
2022-11-05T00:05:19.198Z,8.22
2022-11-05T00:06:19.229Z,8.22
2022-11-05T00:07:19.189Z,8.20
2022-11-05T00:08:19.208Z,8.21
2022-11-05T00:09:19.203Z,8.21
2022-11-05T00:10:19.479Z,8.20
2022-11-05T00:11:19.234Z,8.21
2022-11-05T00:12:19.229Z,8.21
2022-11-05T00:13:19.214Z,8.21
2022-11-05T00:14:19.218Z,8.20
2022-11-05T00:15:19.213Z,8.19
2022-11-05T00:16:19.223Z,8.18
2022-11-05T00:17:19.224Z,8.20
2022-11-05T00:18:19.202Z,8.20
2022-11-05T00:19:19.218Z,8.22
2022-11-05T00:20:19.222Z,8.22
2022-11-05T00:21:19.222Z,8.25
2022-11-05T00:22:19.191Z,8.24
2022-11-05T00:23:19.204Z,8.25
2022-11-05T00:24:24.052Z,8.26
2022-11-05T00:25:19.226Z,8.26
2022-11-05T00:26:19.254Z,8.26
2022-11-05T00:27:19.225Z,8.26
2022-11-05T00:28:19.213Z,8.25
2022-11-05T00:29:19.228Z,8.25
2022-11-05T00:30:19.215Z,8.23
2022-11-05T00:31:19.239Z,8.22
2022-11-05T00:32:19.250Z,8.21
2022-11-05T00:33:19.232Z,8.20
2022-11-05T00:34:19.231Z,8.19
2022-11-05T00:35:19.242Z,8.20
2022-11-05T00:36:19.223Z,8.20
2022-11-05T00:37:19.237Z,8.20
2022-11-05T00:38:19.238Z,8.22
2022-11-05T00:39:19.229Z,8.23
2022-11-05T00:40:19.227Z,8.23
2022-11-05T00:41:19.249Z,8.22
2022-11-05T00:42:19.259Z,8.23
2022-11-05T00:43:19.248Z,8.21
2022-11-05T00:44:19.230Z,8.21
2022-11-05T00:45:19.234Z,8.20
2022-11-05T00:46:19.215Z,8.21
2022-11-05T00:47:19.262Z,8.20
2022-11-05T00:48:19.250Z,8.20
2022-11-05T00:49:19.244Z,8.22
2022-11-05T00:50:19.243Z,8.23
2022-11-05T00:51:19.255Z,8.24
2022-11-05T00:52:19.265Z,8.23
2022-11-05T00:53:19.255Z,8.20
2022-11-05T00:54:19.241Z,8.18
2022-11-05T00:55:19.253Z,8.17
2022-11-05T00:56:19.253Z,8.16
2022-11-05T00:57:19.267Z,8.16
2022-11-05T00:58:19.264Z,8.13
2022-11-05T00:59:19.268Z,8.13
2022-11-05T01:00:19.260Z,8.11
2022-11-05T01:01:19.319Z,8.12
2022-11-05T01:02:19.385Z,8.12
2022-11-05T01:03:19.270Z,8.10
2022-11-05T01:04:19.257Z,8.08
2022-11-05T01:05:19.275Z,8.09
2022-11-05T01:06:19.274Z,8.09
2022-11-05T01:07:19.290Z,8.09
2022-11-05T01:08:19.269Z,8.10
2022-11-05T01:09:19.270Z,8.09
2022-11-05T01:10:19.271Z,8.09
2022-11-05T01:11:19.279Z,8.08
2022-11-05T01:12:19.273Z,8.10
2022-11-05T01:13:19.873Z,8.09
2022-11-05T01:14:19.261Z,8.10
2022-11-05T01:15:19.266Z,8.11
2022-11-05T01:16:19.283Z,8.12
2022-11-05T01:17:19.282Z,8.12
2022-11-05T01:18:19.291Z,8.13
2022-11-05T01:19:19.269Z,8.12
2022-11-05T01:20:19.271Z,8.11
2022-11-05T01:21:19.256Z,8.11
2022-11-05T01:22:19.306Z,8.11
2022-11-05T01:23:19.656Z,8.11
2022-11-05T01:24:19.276Z,8.10
2022-11-05T01:25:19.288Z,8.11
2022-11-05T01:26:19.283Z,8.12
2022-11-05T01:27:19.307Z,8.12
2022-11-05T01:28:19.351Z,8.12
2022-11-05T01:29:19.282Z,8.12
2022-11-05T01:30:19.284Z,8.11
2022-11-05T01:31:19.292Z,8.11
2022-11-05T01:32:19.298Z,8.11
2022-11-05T01:33:19.297Z,8.11
2022-11-05T01:34:19.291Z,8.13
2022-11-05T01:35:19.291Z,8.13
2022-11-05T01:36:19.305Z,8.15
2022-11-05T01:37:19.296Z,8.16
2022-11-05T01:38:19.317Z,8.16
2022-11-05T01:39:19.303Z,8.17
2022-11-05T01:40:19.289Z,8.17
2022-11-05T01:41:19.293Z,8.17
2022-11-05T01:42:19.274Z,8.16
2022-11-05T01:43:19.288Z,8.16
2022-11-05T01:44:19.314Z,8.15
2022-11-05T01:45:19.298Z,8.16
2022-11-05T01:46:19.305Z,8.17
2022-11-05T01:47:19.303Z,8.17
2022-11-05T01:48:19.308Z,8.17
2022-11-05T01:49:19.306Z,8.17
2022-11-05T01:50:19.297Z,8.19
2022-11-05T01:51:19.307Z,8.20
2022-11-05T01:52:19.314Z,8.22
2022-11-05T01:53:19.332Z,8.24
2022-11-05T01:54:19.318Z,8.25
2022-11-05T01:55:19.310Z,8.26
2022-11-05T01:56:19.298Z,8.26
2022-11-05T01:57:19.301Z,8.28
2022-11-05T01:58:19.317Z,8.27
2022-11-05T01:59:19.314Z,8.27
2022-11-05T02:00:19.317Z,8.26
2022-11-05T02:01:19.454Z,8.25
2022-11-05T02:02:19.399Z,8.23
2022-11-05T02:03:19.338Z,8.23
2022-11-05T02:04:19.283Z,8.20
2022-11-05T02:05:19.334Z,8.20
2022-11-05T02:06:19.334Z,8.18
2022-11-05T02:07:19.323Z,8.19
2022-11-05T02:08:19.345Z,8.19
2022-11-05T02:09:19.333Z,8.20
2022-11-05T02:10:19.317Z,8.21
2022-11-05T02:11:19.319Z,8.21
2022-11-05T02:12:19.341Z,8.20
2022-11-05T02:13:19.333Z,8.18
2022-11-05T02:14:19.341Z,8.20
2022-11-05T02:15:19.329Z,8.18
2022-11-05T02:16:19.319Z,8.19
2022-11-05T02:17:19.340Z,8.18
2022-11-05T02:18:19.332Z,8.16
2022-11-05T02:19:19.354Z,8.11
2022-11-05T02:20:19.346Z,8.08
2022-11-05T02:21:19.354Z,8.05
2022-11-05T02:22:19.305Z,8.02
2022-11-05T02:23:19.332Z,7.99
2022-11-05T02:24:19.356Z,7.96
2022-11-05T02:25:19.357Z,7.93
2022-11-05T02:26:19.335Z,7.88
2022-11-05T02:27:19.345Z,7.85
2022-11-05T02:28:19.350Z,7.82
2022-11-05T02:29:19.341Z,7.80
2022-11-05T02:30:19.338Z,7.77
2022-11-05T02:31:19.357Z,7.74
2022-11-05T02:32:19.329Z,7.72
2022-11-05T02:33:19.347Z,7.70
2022-11-05T02:34:19.337Z,7.69
2022-11-05T02:35:19.334Z,7.69
2022-11-05T02:36:19.360Z,7.67
2022-11-05T02:37:19.348Z,7.67
2022-11-05T02:38:19.342Z,7.68
2022-11-05T02:39:19.348Z,7.67
2022-11-05T02:40:19.344Z,7.68
2022-11-05T02:41:19.360Z,7.69
2022-11-05T02:42:19.385Z,7.70
2022-11-05T02:43:19.360Z,7.71
2022-11-05T02:44:19.365Z,7.71
2022-11-05T02:45:19.361Z,7.72
2022-11-05T02:46:19.355Z,7.73
2022-11-05T02:47:19.371Z,7.76
2022-11-05T02:48:19.357Z,7.76
2022-11-05T02:49:19.355Z,7.77
2022-11-05T02:50:19.356Z,7.77
2022-11-05T02:51:19.363Z,7.77
2022-11-05T02:52:19.358Z,7.76
2022-11-05T02:53:19.396Z,7.76
2022-11-05T02:54:19.372Z,7.73
2022-11-05T02:55:19.358Z,7.70
2022-11-05T02:56:19.364Z,7.67
2022-11-05T02:57:19.374Z,7.66
2022-11-05T02:58:19.384Z,7.64
2022-11-05T02:59:19.398Z,7.60
2022-11-05T03:00:19.397Z,7.58
2022-11-05T03:01:19.503Z,7.58
2022-11-05T03:02:19.512Z,7.55
2022-11-05T03:03:19.420Z,7.52
2022-11-05T03:04:19.436Z,7.52
2022-11-05T03:05:19.426Z,7.48
2022-11-05T03:06:19.445Z,7.47
2022-11-05T03:07:19.474Z,7.44
2022-11-05T03:08:19.475Z,7.42
2022-11-05T03:09:19.489Z,7.42
2022-11-05T03:10:19.493Z,7.44
2022-11-05T03:11:19.501Z,7.42
2022-11-05T03:12:19.499Z,7.44
2022-11-05T03:13:19.522Z,7.42
2022-11-05T03:14:19.552Z,7.43
2022-11-05T03:15:19.542Z,7.42
2022-11-05T03:16:19.545Z,7.43
2022-11-05T03:17:19.574Z,7.43
2022-11-05T03:18:19.566Z,7.43
2022-11-05T03:19:19.599Z,7.44
2022-11-05T03:20:19.622Z,7.44
2022-11-05T03:21:19.611Z,7.44
2022-11-05T03:22:19.629Z,7.44
2022-11-05T03:23:19.643Z,7.43
2022-11-05T03:24:19.657Z,7.43
2022-11-05T03:25:19.687Z,7.42
2022-11-05T03:26:19.687Z,7.42
2022-11-05T03:27:19.698Z,7.41
2022-11-05T03:28:19.716Z,7.41
2022-11-05T03:29:19.716Z,7.40
2022-11-05T03:30:19.766Z,7.40
2022-11-05T03:31:19.744Z,7.40
2022-11-05T03:32:19.739Z,7.40
2022-11-05T03:33:19.769Z,7.40
2022-11-05T03:34:19.773Z,7.39
2022-11-05T03:35:19.816Z,7.39
2022-11-05T03:36:19.795Z,7.38
2022-11-05T03:37:19.813Z,7.37
2022-11-05T03:38:19.837Z,7.36
2022-11-05T03:39:19.825Z,7.35
2022-11-05T03:40:19.859Z,7.35
2022-11-05T03:41:19.859Z,7.34
2022-11-05T03:42:19.861Z,7.34
2022-11-05T03:43:19.885Z,7.33
2022-11-05T03:44:19.897Z,7.31
2022-11-05T03:45:19.912Z,7.29
2022-11-05T03:46:19.937Z,7.29
2022-11-05T03:47:19.934Z,7.28
2022-11-05T03:48:19.992Z,7.28
2022-11-05T03:49:19.963Z,7.26
2022-11-05T03:50:19.961Z,7.26
2022-11-05T03:51:19.995Z,7.25
2022-11-05T03:52:19.990Z,7.23
2022-11-05T03:53:20.004Z,7.21
2022-11-05T03:54:20.007Z,7.19
2022-11-05T03:55:20.022Z,7.15
2022-11-05T03:56:20.053Z,7.15
2022-11-05T03:57:20.061Z,7.13
2022-11-05T03:58:20.078Z,7.13
2022-11-05T03:59:20.059Z,7.14
2022-11-05T04:00:20.100Z,7.11
2022-11-05T04:01:20.302Z,7.11
2022-11-05T04:02:20.301Z,7.11
2022-11-05T04:03:20.125Z,7.10
2022-11-05T04:04:20.132Z,7.09
2022-11-05T04:05:20.153Z,7.10
2022-11-05T04:06:20.151Z,7.10
2022-11-05T04:07:20.189Z,7.12
2022-11-05T04:08:20.178Z,7.12
2022-11-05T04:09:20.184Z,7.15
2022-11-05T04:10:20.248Z,7.16
2022-11-05T04:11:20.227Z,7.16
2022-11-05T04:12:20.240Z,7.16
2022-11-05T04:13:20.222Z,7.15
2022-11-05T04:14:20.266Z,7.14
2022-11-05T04:15:20.275Z,7.13
2022-11-05T04:16:20.277Z,7.14
2022-11-05T04:17:20.317Z,7.14
2022-11-05T04:18:20.315Z,7.13
2022-11-05T04:19:25.178Z,7.12
2022-11-05T04:20:20.317Z,7.11
2022-11-05T04:21:20.428Z,7.08
2022-11-05T04:22:20.321Z,7.08
2022-11-05T04:23:20.323Z,7.08
2022-11-05T04:24:20.452Z,7.07
2022-11-05T04:25:20.308Z,7.05
2022-11-05T04:26:20.331Z,7.04
2022-11-05T04:27:20.307Z,7.05
2022-11-05T04:28:20.324Z,7.04
2022-11-05T04:29:20.338Z,7.03
2022-11-05T04:30:20.539Z,7.05
2022-11-05T04:31:20.320Z,7.07
2022-11-05T04:32:20.337Z,7.08
2022-11-05T04:33:20.333Z,7.09
2022-11-05T04:34:20.358Z,7.11
2022-11-05T04:35:20.327Z,7.11
2022-11-05T04:36:20.329Z,7.13
2022-11-05T04:37:20.328Z,7.13
2022-11-05T04:38:20.345Z,7.14
2022-11-05T04:39:20.338Z,7.13
2022-11-05T04:40:20.353Z,7.15
2022-11-05T04:41:20.339Z,7.16
2022-11-05T04:42:20.331Z,7.16
2022-11-05T04:43:20.555Z,7.17
2022-11-05T04:44:20.353Z,7.18
2022-11-05T04:45:20.342Z,7.19
2022-11-05T04:46:20.346Z,7.19
2022-11-05T04:47:20.355Z,7.19
2022-11-05T04:48:20.345Z,7.18
2022-11-05T04:49:20.363Z,7.15
2022-11-05T04:50:20.357Z,7.14
2022-11-05T04:51:20.352Z,7.13
2022-11-05T04:52:20.341Z,7.12
2022-11-05T04:53:20.330Z,7.11
2022-11-05T04:54:20.353Z,7.11
2022-11-05T04:55:20.354Z,7.11
2022-11-05T04:56:20.349Z,7.12
2022-11-05T04:57:20.351Z,7.13
2022-11-05T04:58:20.349Z,7.14
2022-11-05T04:59:20.351Z,7.14
2022-11-05T05:00:20.361Z,7.14
2022-11-05T05:01:20.465Z,7.16
2022-11-05T05:02:20.442Z,7.16
2022-11-05T05:03:20.357Z,7.16
2022-11-05T05:04:20.370Z,7.17
2022-11-05T05:05:20.368Z,7.16
2022-11-05T05:06:20.357Z,7.16
2022-11-05T05:07:20.347Z,7.16
2022-11-05T05:08:20.354Z,7.16
2022-11-05T05:09:20.365Z,7.14
2022-11-05T05:10:20.391Z,7.13
2022-11-05T05:11:20.372Z,7.12
2022-11-05T05:12:20.383Z,7.09
2022-11-05T05:13:20.371Z,7.06
2022-11-05T05:14:20.369Z,7.02
2022-11-05T05:15:20.385Z,7.00
2022-11-05T05:16:20.342Z,6.98
2022-11-05T05:17:20.355Z,6.94
2022-11-05T05:18:20.358Z,6.91
2022-11-05T05:19:20.363Z,6.87
2022-11-05T05:20:20.387Z,6.85
2022-11-05T05:21:20.380Z,6.80
2022-11-05T05:22:20.376Z,6.77
2022-11-05T05:23:20.367Z,6.73
2022-11-05T05:24:20.375Z,6.71
2022-11-05T05:25:20.384Z,6.69
2022-11-05T05:26:20.384Z,6.66
2022-11-05T05:27:20.377Z,6.65
2022-11-05T05:28:20.394Z,6.63
2022-11-05T05:29:20.379Z,6.60
2022-11-05T05:30:20.398Z,6.58
2022-11-05T05:31:20.392Z,6.58
2022-11-05T05:32:20.392Z,6.57
2022-11-05T05:33:20.379Z,6.58
2022-11-05T05:34:20.377Z,6.57
2022-11-05T05:35:20.389Z,6.56
2022-11-05T05:36:20.414Z,6.56
2022-11-05T05:37:20.387Z,6.55
2022-11-05T05:38:20.383Z,6.55
2022-11-05T05:39:20.390Z,6.53
2022-11-05T05:40:20.397Z,6.54
2022-11-05T05:41:20.400Z,6.55
2022-11-05T05:42:20.406Z,6.53
2022-11-05T05:43:20.402Z,6.53
2022-11-05T05:44:20.391Z,6.54
2022-11-05T05:45:20.407Z,6.53
2022-11-05T05:46:20.416Z,6.54
2022-11-05T05:47:20.393Z,6.53
2022-11-05T05:48:20.399Z,6.53
2022-11-05T05:49:20.395Z,6.54
2022-11-05T05:50:20.409Z,6.53
2022-11-05T05:51:20.407Z,6.52
2022-11-05T05:52:20.412Z,6.50
2022-11-05T05:53:20.408Z,6.48
2022-11-05T05:54:20.410Z,6.45
2022-11-05T05:55:20.412Z,6.43
2022-11-05T05:56:20.453Z,6.39
2022-11-05T05:57:20.400Z,6.37
2022-11-05T05:58:20.399Z,6.37
2022-11-05T05:59:20.416Z,6.38
2022-11-05T06:00:20.417Z,6.38
2022-11-05T06:01:20.496Z,6.38
2022-11-05T06:02:20.547Z,6.39
2022-11-05T06:03:20.398Z,6.38
2022-11-05T06:04:20.412Z,6.38
2022-11-05T06:05:20.425Z,6.37
2022-11-05T06:06:20.419Z,6.36
2022-11-05T06:07:20.428Z,6.36
2022-11-05T06:08:20.435Z,6.34
2022-11-05T06:09:20.409Z,6.33
2022-11-05T06:10:20.474Z,6.30
2022-11-05T06:11:20.415Z,6.28
2022-11-05T06:12:20.410Z,6.26
2022-11-05T06:13:20.433Z,6.22
2022-11-05T06:14:20.426Z,6.20
2022-11-05T06:15:20.462Z,6.17
2022-11-05T06:16:20.432Z,6.13
2022-11-05T06:17:20.465Z,6.09
2022-11-05T06:18:20.431Z,6.04
2022-11-05T06:19:20.436Z,6.00
2022-11-05T06:20:20.417Z,5.95
2022-11-05T06:21:20.429Z,5.91
2022-11-05T06:22:20.443Z,5.87
2022-11-05T06:23:20.453Z,5.83
2022-11-05T06:24:20.434Z,5.80
2022-11-05T06:25:20.426Z,5.76
2022-11-05T06:26:20.457Z,5.74
2022-11-05T06:27:20.430Z,5.71
2022-11-05T06:28:20.455Z,5.68
2022-11-05T06:29:20.466Z,5.64
2022-11-05T06:30:20.421Z,5.61
2022-11-05T06:31:20.438Z,5.58
2022-11-05T06:32:20.446Z,5.56
2022-11-05T06:33:20.456Z,5.55
2022-11-05T06:34:20.450Z,5.51
2022-11-05T06:35:20.466Z,5.50
2022-11-05T06:36:20.453Z,5.51
2022-11-05T06:37:20.449Z,5.53
2022-11-05T06:38:20.445Z,5.54
2022-11-05T06:39:20.452Z,5.57
2022-11-05T06:40:20.439Z,5.60
2022-11-05T06:41:20.546Z,5.61
2022-11-05T06:42:20.456Z,5.63
2022-11-05T06:43:20.452Z,5.63
2022-11-05T06:44:20.449Z,5.64
2022-11-05T06:45:20.441Z,5.65
2022-11-05T06:46:20.445Z,5.66
2022-11-05T06:47:20.444Z,5.68
2022-11-05T06:48:20.439Z,5.71
2022-11-05T06:49:20.461Z,5.74
2022-11-05T06:50:20.456Z,5.77
2022-11-05T06:51:20.461Z,5.78
2022-11-05T06:52:20.456Z,5.78
2022-11-05T06:53:20.487Z,5.80
2022-11-05T06:54:20.460Z,5.81
2022-11-05T06:55:20.448Z,5.81
2022-11-05T06:56:20.463Z,5.83
2022-11-05T06:57:20.473Z,5.85
2022-11-05T06:58:20.507Z,5.87
2022-11-05T06:59:20.502Z,5.88
2022-11-05T07:00:20.518Z,5.89
2022-11-05T07:01:20.754Z,5.90
2022-11-05T07:02:20.584Z,5.91
2022-11-05T07:03:20.562Z,5.93
2022-11-05T07:04:20.550Z,5.94
2022-11-05T07:05:20.558Z,5.96
2022-11-05T07:06:20.581Z,5.98
2022-11-05T07:07:20.604Z,5.98
2022-11-05T07:08:20.607Z,5.98
2022-11-05T07:09:20.662Z,5.98
2022-11-05T07:10:40.350Z,6.01
2022-11-05T07:11:40.389Z,6.02
2022-11-05T07:12:40.376Z,6.04
2022-11-05T07:13:40.359Z,6.07
2022-11-05T07:14:40.363Z,6.11
2022-11-05T07:15:40.344Z,6.17
2022-11-05T07:16:40.367Z,6.20
2022-11-05T07:17:40.393Z,6.26
2022-11-05T07:18:40.390Z,6.31
2022-11-05T07:19:40.387Z,6.36
2022-11-05T07:20:40.368Z,6.39
2022-11-05T07:21:40.381Z,6.41
2022-11-05T07:22:40.359Z,6.43
2022-11-05T07:23:40.399Z,6.46
2022-11-05T07:24:40.363Z,6.48
2022-11-05T07:25:40.365Z,6.49
2022-11-05T07:26:40.392Z,6.51
2022-11-05T07:27:40.377Z,6.50
2022-11-05T07:28:40.385Z,6.50
2022-11-05T07:29:40.392Z,6.54
2022-11-05T07:30:40.410Z,6.56
2022-11-05T07:31:40.390Z,6.59
2022-11-05T07:32:40.410Z,6.64
2022-11-05T07:33:40.400Z,6.66
2022-11-05T07:34:40.388Z,6.70
2022-11-05T07:35:40.384Z,6.72
2022-11-05T07:36:40.382Z,6.72
2022-11-05T07:37:40.379Z,6.74
2022-11-05T07:38:40.417Z,6.77
2022-11-05T07:39:40.442Z,6.81
2022-11-05T07:40:40.392Z,6.84
2022-11-05T07:41:40.366Z,6.86
2022-11-05T07:42:40.384Z,6.88
2022-11-05T07:43:40.380Z,6.90
2022-11-05T07:44:40.393Z,6.91
2022-11-05T07:45:40.359Z,6.90
2022-11-05T07:46:40.387Z,6.87
2022-11-05T07:47:40.399Z,6.83
2022-11-05T07:48:40.530Z,6.81
2022-11-05T07:49:40.618Z,6.78
2022-11-05T07:50:40.551Z,6.76
2022-11-05T07:51:40.605Z,6.74
2022-11-05T07:52:40.573Z,6.73
2022-11-05T07:53:45.147Z,6.70
2022-11-05T07:54:40.577Z,6.70
2022-11-05T07:55:40.667Z,6.67
2022-11-05T07:56:40.625Z,6.65
2022-11-05T07:57:40.617Z,6.65
2022-11-05T07:58:40.593Z,6.64
2022-11-05T07:59:40.600Z,6.63
2022-11-05T08:00:40.733Z,6.62
2022-11-05T08:01:40.884Z,6.62
2022-11-05T08:02:40.853Z,6.61
2022-11-05T08:03:40.700Z,6.60
2022-11-05T08:04:40.674Z,6.60
2022-11-05T08:05:40.661Z,6.62
2022-11-05T08:06:40.680Z,6.62
2022-11-05T08:07:40.670Z,6.64
2022-11-05T08:08:40.709Z,6.65
2022-11-05T08:09:40.773Z,6.67
2022-11-05T08:10:40.745Z,6.69
2022-11-05T08:11:40.753Z,6.72
2022-11-05T08:12:40.731Z,6.75
2022-11-05T08:13:40.742Z,6.78
2022-11-05T08:14:40.778Z,6.81
2022-11-05T08:15:40.797Z,6.85
2022-11-05T08:16:40.789Z,6.88
2022-11-05T08:17:40.803Z,6.93
2022-11-05T08:18:40.850Z,6.95
2022-11-05T08:19:40.850Z,6.97
2022-11-05T08:20:41.017Z,6.98
2022-11-05T08:21:40.848Z,7.00
2022-11-05T08:22:40.887Z,7.04
2022-11-05T08:23:40.880Z,7.09
2022-11-05T08:24:40.957Z,7.14
2022-11-05T08:25:40.932Z,7.17
2022-11-05T08:26:40.921Z,7.17
2022-11-05T08:27:40.997Z,7.18
2022-11-05T08:28:40.943Z,7.16
2022-11-05T08:29:40.996Z,7.13
2022-11-05T08:30:41.018Z,7.12
2022-11-05T08:31:41.034Z,7.12
2022-11-05T08:32:41.027Z,7.10
2022-11-05T08:33:41.027Z,7.10
2022-11-05T08:34:41.055Z,7.12
2022-11-05T08:35:41.118Z,7.14
2022-11-05T08:36:41.071Z,7.14
2022-11-05T08:37:41.098Z,7.13
2022-11-05T08:38:41.164Z,7.16
2022-11-05T08:39:41.103Z,7.15
2022-11-05T08:40:41.112Z,7.16
2022-11-05T08:41:41.143Z,7.20
2022-11-05T08:42:41.118Z,7.23
2022-11-05T08:43:41.199Z,7.25
2022-11-05T08:44:41.193Z,7.28
2022-11-05T08:45:41.237Z,7.30
2022-11-05T08:46:41.806Z,7.34
2022-11-05T08:47:41.247Z,7.40
2022-11-05T08:48:41.273Z,7.48
2022-11-05T08:49:41.275Z,7.55
2022-11-05T08:50:41.252Z,7.58
2022-11-05T08:51:41.317Z,7.63
2022-11-05T08:52:41.278Z,7.62
2022-11-05T08:53:41.328Z,7.65
2022-11-05T08:54:41.296Z,7.69
2022-11-05T08:55:41.340Z,7.74
2022-11-05T08:56:41.322Z,7.81
2022-11-05T08:57:41.348Z,7.87
2022-11-05T08:58:41.333Z,7.93
2022-11-05T08:59:41.363Z,7.95
2022-11-05T09:00:41.490Z,7.95
2022-11-05T09:01:41.492Z,7.99
2022-11-05T09:02:41.510Z,8.04
2022-11-05T09:03:41.390Z,8.07
2022-11-05T09:04:41.411Z,8.07
2022-11-05T09:05:41.460Z,8.08
2022-11-05T09:06:41.464Z,8.09
2022-11-05T09:07:41.489Z,8.12
2022-11-05T09:08:41.435Z,8.17
2022-11-05T09:09:41.454Z,8.23
2022-11-05T09:10:41.448Z,8.27
2022-11-05T09:12:10.111Z,8.26
2022-11-05T09:12:41.563Z,8.25
2022-11-05T09:13:41.539Z,8.25
2022-11-05T09:14:41.501Z,8.27
2022-11-05T09:15:41.489Z,8.29
2022-11-05T09:16:41.496Z,8.30
2022-11-05T09:17:41.526Z,8.32
2022-11-05T09:18:41.533Z,8.34
2022-11-05T09:19:41.473Z,8.36
2022-11-05T09:20:41.515Z,8.32
2022-11-05T09:21:41.514Z,8.30
2022-11-05T09:22:43.497Z,8.30
2022-11-05T09:23:41.566Z,8.30
2022-11-05T09:24:41.509Z,8.28
2022-11-05T09:25:41.551Z,8.25
2022-11-05T09:26:41.504Z,8.25
2022-11-05T09:27:41.500Z,8.22
2022-11-05T09:28:41.524Z,8.21
2022-11-05T09:29:41.542Z,8.22
2022-11-05T09:30:41.522Z,8.21
2022-11-05T09:31:41.518Z,8.22
2022-11-05T09:32:41.565Z,8.23
2022-11-05T09:33:41.538Z,8.24
2022-11-05T09:34:41.558Z,8.27
2022-11-05T09:35:41.535Z,8.32
2022-11-05T09:36:41.565Z,8.37
2022-11-05T09:37:41.551Z,8.42
2022-11-05T09:38:41.549Z,8.47
2022-11-05T09:39:41.521Z,8.52
2022-11-05T09:40:41.515Z,8.57
2022-11-05T09:41:41.578Z,8.59
2022-11-05T09:42:41.528Z,8.64
2022-11-05T09:43:41.592Z,8.68
2022-11-05T09:44:41.573Z,8.71
2022-11-05T09:45:41.584Z,8.77
2022-11-05T09:46:41.528Z,8.83
2022-11-05T09:47:41.575Z,8.89
2022-11-05T09:48:41.580Z,8.96
2022-11-05T09:49:41.617Z,8.98
2022-11-05T09:50:41.595Z,8.97
2022-11-05T09:51:41.573Z,8.95
2022-11-05T09:52:41.577Z,8.93
2022-11-05T09:53:41.604Z,8.96
2022-11-05T09:54:41.625Z,8.98
2022-11-05T09:55:41.551Z,8.99
2022-11-05T09:56:41.542Z,8.99
2022-11-05T09:57:41.539Z,8.97
2022-11-05T09:58:41.589Z,8.92
2022-11-05T09:59:41.532Z,8.90
2022-11-05T10:00:41.688Z,8.91
2022-11-05T10:01:41.757Z,8.90
2022-11-05T10:02:41.644Z,8.91
2022-11-05T10:03:41.578Z,8.88
2022-11-05T10:04:41.539Z,8.85
2022-11-05T10:05:41.641Z,8.81
2022-11-05T10:06:41.545Z,8.76
2022-11-05T10:07:41.557Z,8.72
2022-11-05T10:08:41.551Z,8.71
2022-11-05T10:09:41.547Z,8.67
2022-11-05T10:10:41.619Z,8.65
2022-11-05T10:11:41.603Z,8.65
2022-11-05T10:12:41.605Z,8.66
2022-11-05T10:13:41.568Z,8.68
2022-11-05T10:14:41.613Z,8.67
2022-11-05T10:15:41.621Z,8.69
2022-11-05T10:16:41.616Z,8.69
2022-11-05T10:17:41.618Z,8.71
2022-11-05T10:18:41.578Z,8.78
2022-11-05T10:19:41.576Z,8.88
2022-11-05T10:20:41.591Z,8.98
2022-11-05T10:22:05.727Z,9.06
2022-11-05T10:22:45.194Z,9.16
2022-11-05T10:23:41.597Z,9.25
2022-11-05T10:24:41.566Z,9.36
2022-11-05T10:25:41.633Z,9.45
2022-11-05T10:26:41.617Z,9.56
2022-11-05T10:27:41.605Z,9.68
2022-11-05T10:28:41.629Z,9.80
2022-11-05T10:29:41.649Z,9.91
2022-11-05T10:30:41.587Z,10.01
2022-11-05T10:31:41.585Z,10.11
2022-11-05T10:32:41.593Z,10.15
2022-11-05T10:33:41.634Z,10.20
2022-11-05T10:34:41.634Z,10.26
2022-11-05T10:35:41.591Z,10.33
2022-11-05T10:36:41.630Z,10.35
2022-11-05T10:37:41.632Z,10.35
2022-11-05T10:38:41.603Z,10.35
2022-11-05T10:39:41.599Z,10.39
2022-11-05T10:40:41.654Z,10.46
2022-11-05T10:41:41.615Z,10.54
2022-11-05T10:42:41.606Z,10.64
2022-11-05T10:43:41.610Z,10.70
2022-11-05T10:44:41.663Z,10.79
2022-11-05T10:45:41.594Z,10.79
2022-11-05T10:46:41.637Z,10.77
2022-11-05T10:47:41.614Z,10.77
2022-11-05T10:48:43.616Z,10.80
2022-11-05T10:49:41.738Z,10.80
2022-11-05T10:50:41.747Z,10.78
2022-11-05T10:51:41.812Z,10.74
2022-11-05T10:52:41.796Z,10.73
2022-11-05T10:53:41.825Z,10.72
2022-11-05T10:54:41.791Z,10.73
2022-11-05T10:55:41.819Z,10.76
2022-11-05T10:56:41.819Z,10.80
2022-11-05T10:57:41.855Z,10.86
2022-11-05T10:58:41.852Z,10.91
2022-11-05T10:59:41.847Z,10.96
2022-11-05T11:00:41.846Z,11.01
2022-11-05T11:01:41.997Z,10.98
2022-11-05T11:02:41.965Z,10.96
2022-11-05T11:03:41.955Z,10.97
2022-11-05T11:04:41.891Z,10.99
2022-11-05T11:05:41.982Z,11.02
2022-11-05T11:06:41.973Z,10.99
2022-11-05T11:07:41.981Z,10.91
2022-11-05T11:08:42.009Z,10.84
2022-11-05T11:09:41.924Z,10.77
2022-11-05T11:10:41.981Z,10.65
2022-11-05T11:11:41.981Z,10.57
2022-11-05T11:12:42.010Z,10.49
2022-11-05T11:13:42.010Z,10.42
2022-11-05T11:14:42.050Z,10.36
2022-11-05T11:15:42.092Z,10.33
2022-11-05T11:16:42.027Z,10.29
2022-11-05T11:17:42.060Z,10.25
2022-11-05T11:18:42.097Z,10.24
2022-11-05T11:19:42.110Z,10.24
2022-11-05T11:20:42.119Z,10.23
2022-11-05T11:21:42.132Z,10.21
2022-11-05T11:22:42.125Z,10.19
2022-11-05T11:23:42.141Z,10.15
2022-11-05T11:24:42.176Z,10.09
2022-11-05T11:25:42.175Z,10.02
2022-11-05T11:26:42.179Z,9.96
2022-11-05T11:27:42.184Z,9.93
2022-11-05T11:28:42.198Z,9.92
2022-11-05T11:29:46.561Z,9.90
2022-11-05T11:30:42.208Z,9.90
2022-11-05T11:31:42.216Z,9.90
2022-11-05T11:32:42.207Z,9.90
2022-11-05T11:33:42.252Z,9.87
2022-11-05T11:34:42.231Z,9.89
2022-11-05T11:35:42.217Z,9.94
2022-11-05T11:36:42.257Z,10.01
2022-11-05T11:37:42.371Z,10.12
2022-11-05T11:38:42.214Z,10.26
2022-11-05T11:39:42.187Z,10.37
2022-11-05T11:40:42.273Z,10.41
2022-11-05T11:41:42.278Z,10.44
2022-11-05T11:42:42.229Z,10.40
2022-11-05T11:43:42.265Z,10.36
2022-11-05T11:44:42.238Z,10.36
2022-11-05T11:45:42.244Z,10.33
2022-11-05T11:46:42.278Z,10.30
2022-11-05T11:47:42.234Z,10.26
2022-11-05T11:48:42.229Z,10.22
2022-11-05T11:49:42.258Z,10.19
2022-11-05T11:50:42.238Z,10.15
2022-11-05T11:51:42.327Z,10.11
2022-11-05T11:52:42.227Z,10.11
2022-11-05T11:53:42.240Z,10.10
2022-11-05T11:54:42.237Z,10.12
2022-11-05T11:55:42.258Z,10.14
2022-11-05T11:56:42.273Z,10.20
2022-11-05T11:57:42.238Z,10.29
2022-11-05T11:58:42.245Z,10.41
2022-11-05T12:00:07.135Z,10.53
2022-11-05T12:00:42.299Z,10.65
2022-11-05T12:01:42.348Z,10.76
2022-11-05T12:02:42.318Z,10.91
2022-11-05T12:03:42.263Z,11.06
2022-11-05T12:04:42.237Z,11.20
2022-11-05T12:05:42.302Z,11.24
2022-11-05T12:06:42.313Z,11.25
2022-11-05T12:07:42.255Z,11.30
2022-11-05T12:08:45.546Z,11.37
2022-11-05T12:09:42.230Z,11.39
2022-11-05T12:10:42.312Z,11.37
2022-11-05T12:11:42.255Z,11.31
2022-11-05T12:12:42.248Z,11.23
2022-11-05T12:13:42.333Z,11.18
2022-11-05T12:14:46.217Z,11.09
2022-11-05T12:15:42.264Z,11.00
2022-11-05T12:16:42.268Z,10.94
2022-11-05T12:17:42.283Z,10.94
2022-11-05T12:18:42.257Z,10.93
2022-11-05T12:19:42.276Z,10.92
2022-11-05T12:20:42.267Z,10.88
2022-11-05T12:21:52.580Z,10.89
2022-11-05T12:22:42.267Z,10.93
2022-11-05T12:23:42.312Z,10.98
2022-11-05T12:24:42.258Z,11.03
2022-11-05T12:25:42.301Z,11.12
2022-11-05T12:26:42.405Z,11.21
2022-11-05T12:27:42.337Z,11.27
2022-11-05T12:29:04.649Z,11.38
2022-11-05T12:29:42.273Z,11.47
2022-11-05T12:30:42.289Z,11.55
2022-11-05T12:31:42.291Z,11.55
2022-11-05T12:32:42.328Z,11.53
2022-11-05T12:33:42.286Z,11.47
2022-11-05T12:34:42.296Z,11.35
2022-11-05T12:35:47.413Z,11.29
2022-11-05T12:36:42.362Z,11.21
2022-11-05T12:37:42.335Z,11.14
2022-11-05T12:38:42.235Z,11.07
2022-11-05T12:39:42.288Z,11.05
2022-11-05T12:40:42.287Z,11.04
2022-11-05T12:41:42.327Z,11.02
2022-11-05T12:42:42.259Z,11.09
2022-11-05T12:43:42.300Z,11.15
2022-11-05T12:44:42.275Z,11.25
2022-11-05T12:45:42.269Z,11.34
2022-11-05T12:46:42.365Z,11.46
2022-11-05T12:47:42.281Z,11.56
2022-11-05T12:48:42.348Z,11.65
2022-11-05T12:49:42.275Z,11.57
2022-11-05T12:50:42.281Z,11.52
2022-11-05T12:51:42.355Z,11.53
2022-11-05T12:52:42.275Z,11.57
2022-11-05T12:53:42.321Z,11.66
2022-11-05T12:54:42.293Z,11.82
2022-11-05T12:55:48.049Z,11.96
2022-11-05T12:56:42.303Z,12.04
2022-11-05T12:57:42.329Z,12.19
2022-11-05T12:58:42.310Z,12.32
2022-11-05T12:59:42.312Z,12.41
2022-11-05T13:00:42.351Z,12.47
2022-11-05T13:01:42.464Z,12.45
2022-11-05T13:02:42.413Z,12.37
2022-11-05T13:03:42.328Z,12.33
2022-11-05T13:04:42.307Z,12.32
2022-11-05T13:05:42.320Z,12.28
2022-11-05T13:06:42.351Z,12.18
2022-11-05T13:07:42.301Z,12.08
2022-11-05T13:08:42.350Z,11.98
2022-11-05T13:09:42.358Z,11.88
2022-11-05T13:10:42.295Z,11.79
2022-11-05T13:11:42.303Z,11.72
2022-11-05T13:12:42.306Z,11.64
2022-11-05T13:13:42.318Z,11.56